Time;durP1;ratioP1;P1;durP2;ratioP2;P2;SDS_P1;SDS_P2;PMS_P1;PMS_P2;Temp;Humidity;BMP_temperature;BMP_pressure;BME280_temperature;BME280_humidity;BME280_pressure;Samples;Min_cycle;Max_cycle;Signal;HPM_P1;HPM_P2
2021/06/27 00:00:18;;;;;;;9.25;5.15;;;563.30;2432.00;;;;;;5000024;28;20031;-76
2021/06/27 00:02:44;;;;;;;7.77;4.80;;;563.30;2432.00;;;;;;5002766;28;20018;-75
2021/06/27 00:05:12;;;;;;;10.98;5.20;;;563.30;2432.00;;;;;;5000239;28;20378;-75
2021/06/27 00:07:38;;;;;;;11.10;5.57;;;563.30;2432.00;;;;;;5001109;28;20496;-74
2021/06/27 00:10:08;;;;;;;8.55;5.50;;;563.20;2432.00;;;;;;5001472;28;20049;-73
2021/06/27 00:12:34;;;;;;;11.85;5.22;;;538.50;2406.40;;;;;;4999654;28;20029;-73
2021/06/27 00:15:00;;;;;;;9.27;5.10;;;538.50;2406.40;;;;;;5003068;28;20030;-72
2021/06/27 00:17:26;;;;;;;9.75;5.47;;;538.30;2406.40;;;;;;4998022;28;20030;-72
2021/06/27 00:19:51;;;;;;;8.95;5.18;;;538.20;2406.40;;;;;;5003296;28;20018;-73
2021/06/27 00:22:17;;;;;;;11.65;5.22;;;538.10;2406.40;;;;;;4998230;28;20027;-79
2021/06/27 00:24:44;;;;;;;11.30;5.38;;;538.00;2406.40;;;;;;4994970;28;20034;-75
2021/06/27 00:27:10;;;;;;;10.93;5.30;;;538.10;2406.40;;;;;;4991184;28;20105;-78
2021/06/27 00:29:36;;;;;;;9.52;4.78;;;538.20;2406.40;;;;;;5010997;28;20050;-82
2021/06/27 00:32:02;;;;;;;10.35;5.55;;;538.20;2406.40;;;;;;5011265;28;20105;-75
2021/06/27 00:34:27;;;;;;;7.93;5.20;;;538.30;2406.40;;;;;;5010704;28;20036;-75
2021/06/27 00:36:53;;;;;;;8.35;5.20;;;538.30;2406.40;;;;;;5010787;28;20060;-72
2021/06/27 00:39:21;;;;;;;11.35;4.95;;;538.30;2406.40;;;;;;5010863;28;20032;-75
2021/06/27 00:41:47;;;;;;;12.05;5.75;;;538.30;2406.40;;;;;;5011123;28;20082;-78
2021/06/27 00:44:13;;;;;;;9.95;5.53;;;538.30;2406.40;;;;;;5010697;28;20022;-74
2021/06/27 00:46:38;;;;;;;12.05;5.30;;;538.20;2406.40;;;;;;5011515;28;20022;-86
2021/06/27 00:49:04;;;;;;;9.00;5.50;;;538.30;2406.40;;;;;;5010501;28;20117;-78
2021/06/27 00:51:30;;;;;;;9.05;5.22;;;538.20;2406.40;;;;;;5010743;28;20034;-86
2021/06/27 00:53:56;;;;;;;11.00;5.50;;;538.20;2406.40;;;;;;5001878;28;20030;-86
2021/06/27 00:56:21;;;;;;;10.50;5.38;;;538.20;2406.40;;;;;;5010464;28;20046;-74
2021/06/27 00:58:49;;;;;;;11.82;5.20;;;538.20;2406.40;;;;;;5010287;28;20484;-74
2021/06/27 01:01:14;;;;;;;9.98;5.32;;;538.20;2406.40;;;;;;5010197;28;20026;-74
2021/06/27 01:03:40;;;;;;;9.02;5.40;;;538.10;2406.40;;;;;;5010411;28;20040;-74
2021/06/27 01:06:06;;;;;;;10.43;5.32;;;538.10;2406.40;;;;;;5010066;28;20026;-74
2021/06/27 01:08:32;;;;;;;9.70;6.07;;;538.10;2406.40;;;;;;5010666;28;20037;-76
2021/06/27 01:10:58;;;;;;;9.93;5.45;;;538.10;2406.40;;;;;;5003990;28;20192;-74
2021/06/27 01:13:24;;;;;;;10.18;5.93;;;538.00;2406.40;;;;;;5008572;28;20029;-74
2021/06/27 01:15:52;;;;;;;12.50;5.80;;;538.00;2406.40;;;;;;5006886;28;20034;-79
2021/06/27 01:18:17;;;;;;;9.63;5.72;;;537.90;2406.40;;;;;;5008248;28;20053;-84
2021/06/27 01:20:44;;;;;;;12.15;5.10;;;537.80;2406.40;;;;;;4990305;28;20487;-82
2021/06/27 01:23:15;;;;;;;10.38;5.30;;;537.60;2406.40;;;;;;4998154;28;20026;-84
2021/06/27 01:25:43;;;;;;;;;;;537.60;2406.40;;;;;;4997891;28;20030;-72
2021/06/27 01:28:09;;;;;;;8.30;5.20;;;537.60;2406.40;;;;;;5000676;28;19905;-77
2021/06/27 01:30:35;;;;;;;9.45;5.15;;;512.90;2380.80;;;;;;5000459;28;20031;-74
2021/06/27 01:33:06;;;;;;;9.52;5.20;;;512.90;2380.80;;;;;;5002606;28;20385;-74
2021/06/27 01:35:32;;;;;;;10.07;5.40;;;512.90;2380.80;;;;;;5005701;28;20029;-73
2021/06/27 01:37:58;;;;;;;8.68;5.40;;;512.80;2380.80;;;;;;5013444;28;20491;-74
2021/06/27 01:40:26;;;;;;;11.40;5.57;;;512.80;2380.80;;;;;;5006514;28;20511;-70
2021/06/27 01:43:03;;;;;;;9.50;5.35;;;512.80;2380.80;;;;;;5010044;28;20470;-71
2021/06/27 01:45:29;;;;;;;7.10;4.88;;;512.80;2380.80;;;;;;5011947;28;20014;-73
2021/06/27 01:48:00;;;;;;;7.72;5.00;;;512.80;2380.80;;;;;;5013108;28;20038;-71
2021/06/27 01:50:27;;;;;;;9.02;5.50;;;512.90;2380.80;;;;;;5012257;28;20056;-72
2021/06/27 01:52:54;;;;;;;10.27;5.35;;;512.80;2380.80;;;;;;5009704;28;20034;-74
2021/06/27 01:55:20;;;;;;;8.73;5.22;;;512.70;2380.80;;;;;;5007404;28;20026;-73
2021/06/27 01:57:46;;;;;;;9.10;5.40;;;512.60;2380.80;;;;;;5010348;28;20034;-74
2021/06/27 02:00:13;;;;;;;12.32;5.95;;;512.60;2380.80;;;;;;5012074;28;20034;-73
2021/06/27 02:02:38;;;;;;;8.13;4.88;;;512.50;2380.80;;;;;;5012617;28;20033;-76
2021/06/27 02:05:06;;;;;;;9.20;5.25;;;512.40;2380.80;;;;;;5011813;28;20089;-74
2021/06/27 02:07:33;;;;;;;9.57;5.00;;;512.40;2380.80;;;;;;5013814;28;20456;-73
2021/06/27 02:09:58;;;;;;;9.30;4.88;;;512.40;2380.80;;;;;;5012489;28;20033;-74
2021/06/27 02:12:24;;;;;;;8.60;5.60;;;512.40;2380.80;;;;;;5012679;28;20022;-74
2021/06/27 02:14:50;;;;;;;9.80;4.90;;;512.30;2380.80;;;;;;5011286;28;20033;-74
2021/06/27 02:17:16;;;;;;;7.75;4.82;;;512.20;2380.80;;;;;;5012095;28;20562;-74
2021/06/27 02:19:52;;;;;;;10.10;5.30;;;512.30;2380.80;;;;;;5011397;28;20032;-74
2021/06/27 02:22:17;;;;;;;9.65;4.90;;;512.30;2380.80;;;;;;5010229;28;20387;-74
2021/06/27 02:24:43;;;;;;;8.95;5.28;;;512.10;2380.80;;;;;;5000312;28;20035;-75
2021/06/27 02:27:09;;;;;;;10.77;5.20;;;487.30;2380.80;;;;;;5013036;28;20109;-74
2021/06/27 02:29:34;;;;;;;7.47;5.20;;;487.30;2380.80;;;;;;5010509;28;20471;-74
2021/06/27 02:32:00;;;;;;;8.35;5.20;;;487.30;2380.80;;;;;;5010946;28;20022;-74
2021/06/27 02:34:26;;;;;;;10.57;5.10;;;487.20;2380.80;;;;;;5004855;28;20030;-75
2021/06/27 02:36:52;;;;;;;7.82;5.28;;;487.20;2380.80;;;;;;5009446;28;20048;-76
2021/06/27 02:39:18;;;;;;;9.48;5.40;;;487.20;2380.80;;;;;;5011123;28;20030;-77
2021/06/27 02:41:43;;;;;;;10.38;5.72;;;487.20;2380.80;;;;;;5009967;28;20466;-76
2021/06/27 02:44:09;;;;;;;8.50;5.10;;;487.20;2380.80;;;;;;5010782;28;20022;-73
2021/06/27 02:46:35;;;;;;;9.02;4.95;;;487.20;2380.80;;;;;;5012422;28;20033;-73
2021/06/27 02:49:00;;;;;;;9.30;5.40;;;487.30;2380.80;;;;;;5013408;28;20037;-74
2021/06/27 02:51:26;;;;;;;7.85;5.25;;;487.30;2380.80;;;;;;5013837;28;20026;-73
2021/06/27 02:53:52;;;;;;;11.63;4.88;;;487.20;2380.80;;;;;;5007186;28;20037;-74
2021/06/27 02:56:18;;;;;;;8.38;5.00;;;487.20;2380.80;;;;;;5012619;28;20022;-75
2021/06/27 02:58:47;;;;;;;9.32;5.00;;;487.00;2380.80;;;;;;5012625;28;20112;-74
2021/06/27 03:01:15;;;;;;;6.40;4.63;;;487.00;2380.80;;;;;;5012628;28;20036;-74
2021/06/27 03:03:42;;;;;;;7.25;4.63;;;486.90;2380.80;;;;;;5012306;28;20549;-74
2021/06/27 03:06:09;;;;;;;10.93;5.13;;;486.80;2380.80;;;;;;5012385;28;20030;-73
2021/06/27 03:08:35;;;;;;;9.07;5.00;;;486.70;2380.80;;;;;;5012718;28;20383;-74
2021/06/27 03:11:02;;;;;;;10.32;4.90;;;486.60;2380.80;;;;;;5012277;28;20506;-75
2021/06/27 03:13:28;;;;;;;8.93;5.28;;;486.50;2380.80;;;;;;5012760;28;20044;-75
2021/06/27 03:15:54;;;;;;;8.38;4.68;;;486.50;2380.80;;;;;;5012455;28;20018;-73
2021/06/27 03:18:19;;;;;;;11.55;5.05;;;486.60;2380.80;;;;;;5012557;28;20073;-75
2021/06/27 03:20:45;;;;;;;10.13;4.78;;;486.70;2380.80;;;;;;5012791;28;20082;-74
2021/06/27 03:23:12;;;;;;;8.18;5.47;;;486.70;2380.80;;;;;;5007973;28;20050;-74
2021/06/27 03:25:39;;;;;;;9.45;4.93;;;486.70;2380.80;;;;;;5007192;28;20101;-74
2021/06/27 03:28:05;;;;;;;5.93;4.38;;;486.80;2380.80;;;;;;5009448;28;20030;-73
2021/06/27 03:30:31;;;;;;;8.25;4.68;;;486.90;2380.80;;;;;;4990690;28;20494;-76
2021/06/27 03:32:57;;;;;;;7.78;4.85;;;487.00;2380.80;;;;;;5002477;28;20532;-74
2021/06/27 03:35:23;;;;;;;8.80;4.60;;;487.00;2380.80;;;;;;5003585;28;20032;-75
2021/06/27 03:38:04;;;;;;;11.13;4.78;;;487.10;2380.80;;;;;;5012141;28;20105;-75
2021/06/27 03:40:30;;;;;;;8.40;4.82;;;487.10;2380.80;;;;;;5011996;28;20420;-75
2021/06/27 03:42:58;;;;;;;9.45;4.90;;;487.10;2380.80;;;;;;4997601;28;20062;-75
2021/06/27 03:45:24;;;;;;;9.27;5.10;;;487.20;2380.80;;;;;;5004563;28;20475;-74
2021/06/27 03:47:50;;;;;;;7.65;4.80;;;487.20;2380.80;;;;;;5004096;28;20113;-74
2021/06/27 03:50:18;;;;;;;8.60;4.80;;;487.20;2380.80;;;;;;5003154;28;20073;-74
2021/06/27 03:52:44;;;;;;;9.20;4.85;;;487.30;2380.80;;;;;;5004734;28;20391;-75
2021/06/27 03:55:10;;;;;;;7.38;4.72;;;487.30;2380.80;;;;;;5001807;28;20022;-75
2021/06/27 03:57:36;;;;;;;9.35;5.30;;;487.30;2380.80;;;;;;5006255;28;20122;-75
2021/06/27 04:00:05;;;;;;;12.20;5.13;;;487.30;2380.80;;;;;;5001417;28;20512;-74
2021/06/27 04:02:31;;;;;;;8.38;4.55;;;512.00;2380.80;;;;;;5005706;28;20139;-75
2021/06/27 04:04:57;;;;;;;6.78;4.68;;;512.10;2380.80;;;;;;5002910;28;20042;-74
2021/06/27 04:07:22;;;;;;;8.95;5.38;;;512.20;2380.80;;;;;;5003655;28;20388;-75
2021/06/27 04:09:48;;;;;;;9.02;5.35;;;512.30;2380.80;;;;;;5004719;28;20079;-75
2021/06/27 04:12:14;;;;;;;8.38;5.45;;;512.50;2380.80;;;;;;5001543;28;20054;-73
2021/06/27 04:14:39;;;;;;;7.78;5.60;;;512.50;2380.80;;;;;;5006223;28;20049;-78
2021/06/27 04:17:05;;;;;;;8.38;5.40;;;512.60;2380.80;;;;;;5000767;28;20064;-70
2021/06/27 04:19:31;;;;;;;9.02;5.43;;;512.80;2380.80;;;;;;5005482;28;20030;-73
2021/06/27 04:21:57;;;;;;;8.02;5.43;;;512.90;2380.80;;;;;;5003571;28;20018;-74
2021/06/27 04:24:23;;;;;;;8.40;5.15;;;537.60;2406.40;;;;;;5000320;28;20030;-75
2021/06/27 04:26:48;;;;;;;10.02;5.45;;;537.70;2406.40;;;;;;5006391;28;20545;-75
2021/06/27 04:29:16;;;;;;;7.43;5.25;;;537.70;2406.40;;;;;;5003750;28;20105;-74
2021/06/27 04:31:43;;;;;;;9.73;5.05;;;537.90;2406.40;;;;;;5008131;28;20480;-77
2021/06/27 04:34:12;;;;;;;8.70;5.10;;;538.00;2406.40;;;;;;5004026;28;20030;-80
2021/06/27 04:36:38;;;;;;;8.45;5.03;;;538.00;2406.40;;;;;;5014347;28;20030;-74
2021/06/27 04:39:08;;;;;;;8.48;5.13;;;538.20;2406.40;;;;;;5012666;28;20022;-74
2021/06/27 04:41:34;;;;;;;7.88;5.03;;;538.20;2406.40;;;;;;5012615;28;20115;-74
2021/06/27 04:44:00;;;;;;;9.00;5.15;;;538.40;2406.40;;;;;;5012316;28;20022;-74
2021/06/27 04:46:26;;;;;;;8.57;5.10;;;538.50;2406.40;;;;;;5011994;28;20022;-72
2021/06/27 04:48:52;;;;;;;10.75;5.35;;;563.20;2432.00;;;;;;5012119;28;20042;-74
2021/06/27 04:51:17;;;;;;;8.18;5.18;;;563.40;2432.00;;;;;;5012480;28;20391;-77
2021/06/27 04:53:43;;;;;;;7.95;5.25;;;563.50;2432.00;;;;;;5007666;28;20022;-78
2021/06/27 04:56:09;;;;;;;10.30;5.28;;;563.80;2432.00;;;;;;5015364;28;20026;-80
2021/06/27 04:58:35;;;;;;;7.63;5.00;;;588.90;2432.00;;;;;;5015720;28;20426;-82
2021/06/27 05:01:00;;;;;;;9.45;5.13;;;666.30;2432.00;;;;;;5016796;28;20018;-77
2021/06/27 05:03:26;;;;;;;12.13;5.20;;;743.30;2432.00;;;;;;5015194;28;20018;-74
2021/06/27 05:05:52;;;;;;;9.95;5.60;;;819.60;2432.00;;;;;;5013897;28;20113;-71
2021/06/27 05:08:17;;;;;;;12.90;5.70;;;870.80;2432.00;;;;;;5015825;28;20026;-75
2021/06/27 05:10:43;;;;;;;17.65;6.10;;;921.90;2227.20;;;;;;5016044;28;20502;-86
2021/06/27 05:13:09;;;;;;;17.50;5.75;;;947.60;2022.40;;;;;;5016168;28;20090;-84
2021/06/27 05:15:34;;;;;;;13.95;5.38;;;972.90;1920.00;;;;;;5017753;28;20425;-85
2021/06/27 05:18:00;;;;;;;9.55;4.30;;;973.20;1843.20;;;;;;5025293;28;20074;-78
2021/06/27 05:20:26;;;;;;;7.60;4.72;;;998.50;1792.00;;;;;;5025792;28;20030;-78
2021/06/27 05:22:52;;;;;;;9.23;4.40;;;973.70;1740.80;;;;;;5021126;28;20044;-82
2021/06/27 05:25:17;;;;;;;8.52;4.90;;;973.20;1740.80;;;;;;5009224;28;20036;-83
2021/06/27 05:27:43;;;;;;;8.20;4.30;;;948.00;1740.80;;;;;;5010394;28;20053;-82
2021/06/27 05:30:10;;;;;;;9.70;4.57;;;871.20;1868.80;;;;;;5016271;28;20472;-74
2021/06/27 05:32:35;;;;;;;8.77;4.53;;;845.20;1996.80;;;;;;5016885;28;20025;-84
2021/06/27 05:35:02;;;;;;;8.77;4.45;;;794.40;2099.20;;;;;;5012769;28;20078;-83
2021/06/27 05:37:27;;;;;;;6.97;4.05;;;768.50;2176.00;;;;;;5011668;28;20064;-80
2021/06/27 05:39:53;;;;;;;7.20;4.53;;;743.20;2201.60;;;;;;5015412;28;20402;-82
2021/06/27 05:42:20;;;;;;;8.75;4.50;;;742.80;2278.40;;;;;;5011677;28;20053;-85
2021/06/27 05:44:45;;;;;;;8.05;4.70;;;742.60;2304.00;;;;;;5017839;28;20026;-83
2021/06/27 05:47:11;;;;;;;10.93;4.93;;;717.70;2329.60;;;;;;5012974;28;20026;-84
2021/06/27 05:49:37;;;;;;;7.28;4.82;;;717.40;2380.80;;;;;;5016287;28;20065;-78
2021/06/27 05:52:03;;;;;;;7.35;4.40;;;717.00;2406.40;;;;;;5010095;28;20025;-71
2021/06/27 05:54:29;;;;;;;7.60;4.65;;;716.80;2432.00;;;;;;5003642;28;20026;-76
2021/06/27 05:56:55;;;;;;;8.45;4.30;;;716.80;2432.00;;;;;;5009543;28;20026;-76
2021/06/27 05:59:20;;;;;;;7.10;4.22;;;691.90;2432.00;;;;;;5009527;28;20038;-77
2021/06/27 06:01:46;;;;;;;6.28;4.28;;;691.80;2432.00;;;;;;5009733;28;20022;-80
2021/06/27 06:04:12;;;;;;;7.18;4.32;;;691.70;2432.00;;;;;;5009895;28;20491;-83
2021/06/27 06:06:38;;;;;;;5.93;4.25;;;691.60;2432.00;;;;;;5016692;28;20025;-82
2021/06/27 06:09:04;;;;;;;7.20;4.40;;;691.60;2432.00;;;;;;5015086;28;20092;-82
2021/06/27 06:11:30;;;;;;;6.53;4.30;;;691.70;2432.00;;;;;;5013369;28;20026;-75
2021/06/27 06:13:55;;;;;;;6.32;4.40;;;691.70;2432.00;;;;;;5014891;28;20037;-75
2021/06/27 06:16:22;;;;;;;7.47;4.20;;;691.80;2432.00;;;;;;5014924;28;20112;-79
2021/06/27 06:18:48;;;;;;;5.90;4.30;;;691.90;2432.00;;;;;;5012381;28;20487;-83
2021/06/27 06:21:14;;;;;;;7.35;4.22;;;692.00;2432.00;;;;;;5015494;28;20124;-82
2021/06/27 06:23:41;;;;;;;6.53;4.20;;;692.10;2432.00;;;;;;5005293;28;20380;-77
2021/06/27 06:26:07;;;;;;;6.75;4.47;;;716.80;2432.00;;;;;;5010749;28;20018;-73
2021/06/27 06:28:33;;;;;;;5.95;4.40;;;716.90;2432.00;;;;;;5013250;28;20083;-77
2021/06/27 06:30:59;;;;;;;8.13;4.40;;;717.00;2432.00;;;;;;5015192;28;20109;-82
2021/06/27 06:33:24;;;;;;;8.07;4.53;;;717.20;2432.00;;;;;;5014955;28;20753;-84
2021/06/27 06:35:50;;;;;;;6.85;4.40;;;717.30;2432.00;;;;;;5013022;28;20033;-81
2021/06/27 06:38:17;;;;;;;8.43;4.78;;;717.40;2432.00;;;;;;5020656;28;20151;-79
2021/06/27 06:40:43;;;;;;;6.90;4.43;;;717.50;2432.00;;;;;;5013511;28;20038;-79
2021/06/27 06:43:08;;;;;;;9.73;4.70;;;717.60;2432.00;;;;;;5015254;28;20033;-83
2021/06/27 06:45:35;;;;;;;6.75;4.50;;;742.40;2432.00;;;;;;5019905;28;20071;-82
2021/06/27 06:48:01;;;;;;;6.43;4.60;;;742.50;2432.00;;;;;;5020504;28;20506;-84
2021/06/27 06:50:27;;;;;;;7.00;4.40;;;742.70;2432.00;;;;;;5013249;28;20029;-77
2021/06/27 06:52:53;;;;;;;5.53;4.00;;;742.80;2432.00;;;;;;5011241;28;20373;-85
2021/06/27 06:55:22;;;;;;;8.30;4.38;;;742.90;2432.00;;;;;;5008737;28;20045;-74
2021/06/27 06:57:49;;;;;;;6.80;4.40;;;743.10;2406.40;;;;;;5012562;28;20101;-86
2021/06/27 07:00:15;;;;;;;6.38;4.22;;;743.10;2380.80;;;;;;5012084;28;20633;-85
2021/06/27 07:02:41;;;;;;;9.65;4.50;;;743.30;2380.80;;;;;;5001276;28;20071;-80
2021/06/27 07:05:09;;;;;;;7.32;4.30;;;768.10;2380.80;;;;;;5006146;28;20023;-78
2021/06/27 07:07:35;;;;;;;7.75;5.10;;;768.40;2355.20;;;;;;4975617;28;20083;-78
2021/06/27 07:10:04;;;;;;;7.93;4.93;;;793.70;2355.20;;;;;;4977147;28;20034;-74
2021/06/27 07:12:30;;;;;;;7.07;4.57;;;819.90;2252.80;;;;;;4979571;28;20026;-74
2021/06/27 07:14:56;;;;;;;8.52;4.50;;;;;;;;;;4975688;28;20105;-73
2021/06/27 07:17:22;;;;;;;7.35;4.70;;;871.00;2099.20;;;;;;4979440;28;20103;-71
2021/06/27 07:19:48;;;;;;;7.30;4.20;;;1075.40;1689.60;;;;;;5003411;28;20432;-82
2021/06/27 07:22:14;;;;;;;8.70;4.20;;;1127.30;1484.80;;;;;;4998855;28;20500;-74
2021/06/27 07:24:39;;;;;;;7.07;4.18;;;1178.00;1356.80;;;;;;5001249;28;20026;-85
2021/06/27 07:27:06;;;;;;;7.28;4.63;;;1203.60;1305.60;;;;;;4999176;28;20015;-84
2021/06/27 07:29:32;;;;;;;7.65;4.75;;;1228.90;1254.40;;;;;;5002952;28;20022;-75
2021/06/27 07:31:58;;;;;;;8.02;4.45;;;1254.40;1254.40;;;;;;5000920;28;20431;-76
2021/06/27 07:34:25;;;;;;;7.97;4.40;;;1254.90;1203.20;;;;;;5001081;28;20037;-72
2021/06/27 07:36:51;;;;;;;6.13;4.20;;;1229.20;1203.20;;;;;;4977825;28;20118;-82
2021/06/27 07:39:17;;;;;;;6.68;4.20;;;1177.70;1203.20;;;;;;4975087;28;20105;-84
2021/06/27 07:41:42;;;;;;;7.65;4.13;;;1075.70;1280.00;;;;;;4980399;28;20527;-76
2021/06/27 07:44:08;;;;;;;7.97;4.03;;;1024.10;1356.80;;;;;;4977113;28;20102;-75
2021/06/27 07:46:34;;;;;;;6.82;3.88;;;973.50;1408.00;;;;;;4977085;28;20031;-73
2021/06/27 07:48:59;;;;;;;6.05;4.38;;;972.90;1459.20;;;;;;4974709;28;20046;-81
2021/06/27 07:51:25;;;;;;;6.95;4.30;;;973.20;1459.20;;;;;;4973138;28;20034;-81
2021/06/27 07:53:51;;;;;;;6.63;3.80;;;1024.00;1433.60;;;;;;4978051;28;20057;-83
2021/06/27 07:56:17;;;;;;;7.20;3.90;;;1101.70;1305.60;;;;;;4976300;28;20083;-77
2021/06/27 07:58:43;;;;;;;5.63;3.90;;;1178.50;1203.20;;;;;;4980480;28;20405;-70
2021/06/27 08:01:08;;;;;;;5.32;3.83;;;1254.40;1203.20;;;;;;5010492;28;20119;-70
2021/06/27 08:03:34;;;;;;;7.50;3.63;;;1305.60;1126.40;;;;;;5009669;28;20022;-71
2021/06/27 08:06:00;;;;;;;6.15;3.60;;;1331.90;1126.40;;;;;;5010307;28;20026;-79
2021/06/27 08:08:25;;;;;;;7.40;3.72;;;1357.10;1126.40;;;;;;5010510;28;20115;-86
2021/06/27 08:10:52;;;;;;;6.60;3.40;;;1382.60;1100.80;;;;;;5003561;28;20021;-87
2021/06/27 08:13:18;;;;;;;6.57;3.67;;;1382.60;1075.20;;;;;;4975842;28;20415;-84
2021/06/27 08:15:43;;;;;;;6.93;3.70;;;1382.40;1100.80;;;;;;4979339;28;20101;-83
2021/06/27 08:18:09;;;;;;;5.78;3.70;;;1382.40;1100.80;;;;;;4993121;28;20026;-84
2021/06/27 08:20:35;;;;;;;6.00;3.45;;;1357.70;1075.20;;;;;;4993514;28;20034;-82
2021/06/27 08:23:01;;;;;;;5.22;3.47;;;1382.60;1100.80;;;;;;4993803;28;20102;-82
2021/06/27 08:25:27;;;;;;;5.72;3.40;;;1382.80;1075.20;;;;;;4993311;28;20030;-83
2021/06/27 08:27:53;;;;;;;5.55;3.40;;;1383.10;1049.60;;;;;;4994288;28;20376;-83
2021/06/27 08:30:20;;;;;;;6.57;3.70;;;1382.90;1049.60;;;;;;4993180;28;20031;-81
2021/06/27 08:32:47;;;;;;;5.28;3.20;;;1332.10;1049.60;;;;;;4994332;28;20034;-76
2021/06/27 08:35:15;;;;;;;6.18;3.17;;;1255.00;1075.20;;;;;;4998304;28;20057;-71
2021/06/27 08:37:41;;;;;;;4.68;3.20;;;1178.00;1100.80;;;;;;4997279;28;20062;-82
2021/06/27 08:40:09;;;;;;;5.05;3.50;;;1101.20;1177.60;;;;;;4977909;28;20033;-73
2021/06/27 08:42:34;;;;;;;6.32;3.72;;;1049.80;1228.80;;;;;;4971441;28;20023;-72
2021/06/27 08:45:01;;;;;;;5.78;3.30;;;1024.00;1280.00;;;;;;4971861;28;20075;-69
2021/06/27 08:47:29;;;;;;;6.25;3.60;;;998.50;1305.60;;;;;;4976476;28;20034;-73
2021/06/27 08:49:54;;;;;;;4.80;3.40;;;973.00;1331.20;;;;;;4998365;28;20074;-71
2021/06/27 08:52:21;;;;;;;5.50;3.50;;;948.00;1305.60;;;;;;4983484;28;20061;-71
2021/06/27 08:54:49;;;;;;;5.63;3.65;;;947.30;1356.80;;;;;;4981179;28;20054;-72
2021/06/27 08:57:16;;;;;;;6.95;3.53;;;922.10;1382.40;;;;;;4987395;28;20022;-73
2021/06/27 08:59:42;;;;;;;4.97;3.70;;;921.90;1382.40;;;;;;4980546;28;20492;-81
2021/06/27 09:02:09;;;;;;;6.30;3.38;;;896.80;1382.40;;;;;;4973416;28;20093;-76
2021/06/27 09:04:40;;;;;;;5.05;3.58;;;896.80;1408.00;;;;;;4970916;28;20101;-72
2021/06/27 09:07:39;;;;;;;7.07;3.60;;;896.00;1408.00;;;;;;4975957;28;20050;-72
2021/06/27 09:10:16;;;;;;;6.47;3.60;;;871.20;1433.60;;;;;;5012688;28;20034;-72
2021/06/27 09:12:48;;;;;;;8.30;4.10;;;871.10;1433.60;;;;;;4983108;28;20384;-72
2021/06/27 09:15:31;;;;;;;7.82;3.63;;;870.90;1459.20;;;;;;4997087;28;20030;-72
2021/06/27 09:17:56;;;;;;;7.05;3.90;;;870.90;1459.20;;;;;;4980627;28;20385;-73
2021/06/27 09:20:24;;;;;;;7.00;4.00;;;870.90;1459.20;;;;;;4970911;28;20069;-71
2021/06/27 09:22:51;;;;;;;5.28;3.90;;;870.70;1484.80;;;;;;4975313;28;20061;-71
2021/06/27 09:25:26;;;;;;;6.50;4.25;;;870.60;1484.80;;;;;;5001716;28;20073;-70
2021/06/27 09:28:05;;;;;;;6.05;4.03;;;870.50;1510.40;;;;;;5006579;28;20033;-80
2021/06/27 09:30:44;;;;;;;5.50;3.90;;;870.40;1484.80;;;;;;5008052;28;20022;-78
2021/06/27 09:33:12;;;;;;;4.93;3.90;;;870.40;1510.40;;;;;;5008546;28;20021;-82
2021/06/27 09:35:43;;;;;;;5.90;3.70;;;845.70;1484.80;;;;;;5008356;28;20433;-84
2021/06/27 09:38:30;;;;;;;6.07;4.05;;;870.40;1484.80;;;;;;5009550;28;20022;-70
2021/06/27 09:41:29;;;;;;;6.32;3.67;;;870.40;1484.80;;;;;;5010203;28;20038;-71
2021/06/27 09:43:58;;;;;;;6.35;4.53;;;845.70;1510.40;;;;;;5009658;28;20056;-69
2021/06/27 09:46:44;;;;;;;7.05;4.03;;;845.70;1510.40;;;;;;5010194;28;20018;-72
2021/06/27 09:49:28;;;;;;;6.55;4.30;;;845.70;1510.40;;;;;;5009365;28;20504;-80
2021/06/27 09:51:58;;;;;;;6.32;3.90;;;845.70;1510.40;;;;;;5009515;28;20022;-80
2021/06/27 09:54:26;;;;;;;5.55;3.80;;;845.40;1536.00;;;;;;5003278;28;20075;-83
2021/06/27 09:56:53;;;;;;;7.93;4.10;;;845.60;1536.00;;;;;;4987333;28;20553;-74
2021/06/27 09:59:31;;;;;;;5.50;4.00;;;845.70;1536.00;;;;;;4975818;28;20114;-71
2021/06/27 10:01:57;;;;;;;6.82;4.10;;;870.50;1510.40;;;;;;4983299;28;20051;-71
2021/06/27 10:04:28;;;;;;;4.97;4.00;;;870.50;1484.80;;;;;;4979402;28;20046;-71
2021/06/27 10:06:56;;;;;;;5.38;4.07;;;870.90;1510.40;;;;;;4981060;28;20354;-74
2021/06/27 10:09:27;;;;;;;7.90;4.63;;;870.80;1484.80;;;;;;4993871;28;20086;-71
2021/06/27 10:12:06;;;;;;;7.63;4.95;;;870.80;1484.80;;;;;;4976888;28;20088;-71
2021/06/27 10:14:50;;;;;;;7.10;4.40;;;870.70;1510.40;;;;;;4985476;28;20034;-71
2021/06/27 10:17:22;;;;;;;5.43;4.00;;;870.70;1510.40;;;;;;4985503;28;20023;-71
2021/06/27 10:19:48;;;;;;;6.40;4.00;;;870.50;1484.80;;;;;;4985233;28;20038;-70
2021/06/27 10:22:14;;;;;;;6.75;3.53;;;870.50;1459.20;;;;;;4992537;28;20550;-70
2021/06/27 10:24:40;;;;;;;5.35;3.75;;;870.50;1459.20;;;;;;4990455;28;20034;-71
2021/06/27 10:27:07;;;;;;;4.40;3.50;;;870.50;1484.80;;;;;;4986337;28;20018;-72
2021/06/27 10:29:37;;;;;;;5.53;4.03;;;870.60;1484.80;;;;;;4995292;28;20026;-79
2021/06/27 10:32:03;;;;;;;5.20;3.90;;;870.50;1484.80;;;;;;4998059;28;20027;-78
2021/06/27 10:34:29;;;;;;;6.10;3.75;;;870.50;1484.80;;;;;;4990794;28;20434;-83
2021/06/27 10:37:05;;;;;;;6.38;3.45;;;845.70;1484.80;;;;;;4987097;28;20024;-81
2021/06/27 10:39:31;;;;;;;5.63;3.90;;;845.70;1484.80;;;;;;5004717;28;20036;-74
2021/06/27 10:42:02;;;;;;;6.32;3.60;;;870.40;1459.20;;;;;;4995713;28;20038;-80
2021/06/27 10:44:37;;;;;;;5.22;3.70;;;870.50;1484.80;;;;;;4974869;28;20106;-70
2021/06/27 10:47:03;;;;;;;5.28;3.83;;;870.40;1459.20;;;;;;4973457;28;20392;-69
2021/06/27 10:49:32;;;;;;;6.20;3.95;;;845.70;1459.20;;;;;;4974951;28;20043;-69
2021/06/27 10:52:09;;;;;;;5.65;3.53;;;845.60;1484.80;;;;;;4991297;28;20043;-72
2021/06/27 10:54:36;;;;;;;5.68;4.00;;;845.50;1459.20;;;;;;4993164;28;20034;-71
2021/06/27 10:57:12;;;;;;;4.93;3.63;;;845.40;1536.00;;;;;;4992734;28;20396;-80
2021/06/27 10:59:38;;;;;;;4.63;3.55;;;845.40;1510.40;;;;;;4998149;28;20026;-83
2021/06/27 11:02:31;;;;;;;5.07;3.30;;;845.40;1484.80;;;;;;5006117;28;20019;-83
2021/06/27 11:05:29;;;;;;;4.90;3.42;;;845.40;1510.40;;;;;;5008308;28;20022;-72
2021/06/27 11:07:56;;;;;;;5.07;3.50;;;845.30;1459.20;;;;;;4993114;28;20030;-72
2021/06/27 11:10:22;;;;;;;5.05;3.08;;;845.40;1459.20;;;;;;4988668;28;20038;-80
2021/06/27 11:13:07;;;;;;;5.03;3.40;;;845.40;1484.80;;;;;;4979897;28;20042;-70
2021/06/27 11:15:38;;;;;;;5.40;3.20;;;845.50;1484.80;;;;;;4992299;28;20035;-72
2021/06/27 11:18:09;;;;;;;3.75;2.88;;;845.50;1459.20;;;;;;4986571;28;20030;-72
2021/06/27 11:20:54;;;;;;;5.20;3.40;;;845.70;1433.60;;;;;;4998787;28;20041;-72
2021/06/27 11:24:00;;;;;;;5.90;3.20;;;870.40;1484.80;;;;;;4978764;28;20022;-72
2021/06/27 11:26:38;;;;;;;5.82;3.28;;;870.40;1459.20;;;;;;4976530;28;20554;-72
2021/06/27 11:29:25;;;;;;;5.32;3.10;;;870.50;1484.80;;;;;;4988637;28;20518;-78
2021/06/27 11:31:55;;;;;;;4.88;3.10;;;870.50;1484.80;;;;;;4981183;28;20168;-71
2021/06/27 11:34:25;;;;;;;4.55;3.10;;;870.50;1484.80;;;;;;4986053;28;20532;-76
2021/06/27 11:36:52;;;;;;;5.75;3.03;;;870.50;1459.20;;;;;;4984148;28;20062;-70
2021/06/27 11:39:47;;;;;;;5.50;3.38;;;870.70;1459.20;;;;;;4982158;28;20042;-72
2021/06/27 11:42:30;;;;;;;5.53;3.35;;;870.90;1433.60;;;;;;4989671;28;20033;-72
2021/06/27 11:45:08;;;;;;;5.18;3.53;;;871.30;1408.00;;;;;;4979965;28;20050;-77
2021/06/27 11:47:45;;;;;;;4.70;3.28;;;896.30;1408.00;;;;;;4992585;28;20058;-76
2021/06/27 11:50:27;;;;;;;6.00;3.40;;;896.50;1356.80;;;;;;4985549;28;20046;-82
2021/06/27 11:53:08;;;;;;;5.20;3.30;;;896.90;1356.80;;;;;;4985065;28;20030;-70
2021/06/27 11:55:35;;;;;;;6.35;3.40;;;921.70;1408.00;;;;;;4985839;28;20037;-70
2021/06/27 11:58:02;;;;;;;4.70;3.35;;;921.90;1356.80;;;;;;5001420;28;20049;-71
2021/06/27 12:00:39;;;;;;;4.93;3.10;;;922.00;1356.80;;;;;;5004171;28;20479;-71
2021/06/27 12:03:11;;;;;;;4.88;3.22;;;922.10;1356.80;;;;;;4997690;28;20019;-69
2021/06/27 12:05:38;;;;;;;5.25;3.50;;;896.80;1331.20;;;;;;4981183;28;20027;-72
2021/06/27 12:08:11;;;;;;;6.65;3.25;;;896.30;1382.40;;;;;;4977290;28;20018;-69
2021/06/27 12:10:38;;;;;;;4.88;3.25;;;896.60;1382.40;;;;;;4980135;28;20087;-73
2021/06/27 12:13:09;;;;;;;5.28;3.30;;;896.90;1331.20;;;;;;4978897;28;20098;-71
2021/06/27 12:15:40;;;;;;;6.72;3.40;;;896.50;1382.40;;;;;;4983706;28;20364;-72
2021/06/27 12:18:21;;;;;;;6.10;3.20;;;896.10;1382.40;;;;;;4983562;28;20022;-72
2021/06/27 12:20:56;;;;;;;5.68;3.60;;;896.70;1408.00;;;;;;4983727;28;20054;-76